Terminal Aerodrome Forecast
Issued by NWS Bismarck, ND

Home | Current Version | Previous Version | Graphics & Text | Print | Product List | Glossary On
Versions: 1 2 3 4 5 6 7 8 9 10 11 12 13
670
FTUS43 KBIS 290532
TAFBIS
TAF
KBIS 290532Z 2906/3006 36007KT P6SM SCT250
     FM291000 35008KT P6SM SCT015 SCT250
     FM291400 01012KT P6SM SCT250
     FM300100 04006KT P6SM FEW250=

USA.gov is the U.S. government's official web portal to all federal, state and local government web resources and services.